Terminal Aerodrome Forecast
Issued by NWS

Home | Current Version | Previous Version | Text Only | Print | Product List | Glossary On
Versions: 1 2 3 4 5 6 7 8 9 10 11 12 13 14 15
308
FTUS45 KRIW 282001 AAA
TAFRKS
TAF AMD
KRKS 282001Z 2820/2918 29013G23KT P6SM SCT200
     FM290200 VRB06KT P6SM SKC
     FM291200 04006KT P6SM SCT120=

USA.gov is the U.S. government's official web portal to all federal, state and local government web resources and services.